createdAt,value
2023-03-10T00:00:56.792Z,8.86
2023-03-10T00:01:56.726Z,8.92
2023-03-10T00:02:56.663Z,8.92
2023-03-10T00:03:56.592Z,8.90
2023-03-10T00:04:56.580Z,8.90
2023-03-10T00:05:56.493Z,8.92
2023-03-10T00:06:56.392Z,8.89
2023-03-10T00:07:56.336Z,8.88
2023-03-10T00:08:56.305Z,8.86
2023-03-10T00:09:56.184Z,8.86
2023-03-10T00:10:56.128Z,8.81
2023-03-10T00:11:56.052Z,8.75
2023-03-10T00:12:56.032Z,8.72
2023-03-10T00:13:55.943Z,8.71
2023-03-10T00:14:55.854Z,8.72
2023-03-10T00:15:55.893Z,8.71
2023-03-10T00:16:55.722Z,8.67
2023-03-10T00:17:55.655Z,8.68
2023-03-10T00:18:55.588Z,8.72
2023-03-10T00:19:55.522Z,8.62
2023-03-10T00:20:55.452Z,8.56
2023-03-10T00:21:55.398Z,8.60
2023-03-10T00:22:55.319Z,8.55
2023-03-10T00:23:55.265Z,8.56
2023-03-10T00:24:55.187Z,8.60
2023-03-10T00:25:55.115Z,8.67
2023-03-10T00:26:55.050Z,8.62
2023-03-10T00:27:54.986Z,8.57
2023-03-10T00:28:54.939Z,8.70
2023-03-10T00:29:54.855Z,8.56
2023-03-10T00:30:54.894Z,8.74
2023-03-10T00:31:54.742Z,8.67
2023-03-10T00:32:54.651Z,8.68
2023-03-10T00:33:54.591Z,8.72
2023-03-10T00:34:54.524Z,8.74
2023-03-10T00:35:54.509Z,8.68
2023-03-10T00:36:54.392Z,8.75
2023-03-10T00:37:54.330Z,8.75
2023-03-10T00:38:54.258Z,8.72
2023-03-10T00:39:54.196Z,8.77
2023-03-10T00:40:54.126Z,8.70
2023-03-10T00:41:54.058Z,8.80
2023-03-10T00:42:53.991Z,8.75
2023-03-10T00:43:53.936Z,8.74
2023-03-10T00:44:53.855Z,8.71
2023-03-10T00:45:53.805Z,8.71
2023-03-10T00:46:53.723Z,8.75
2023-03-10T00:47:53.658Z,8.67
2023-03-10T00:48:53.597Z,8.72
2023-03-10T00:49:53.520Z,8.77
2023-03-10T00:50:53.456Z,8.85
2023-03-10T00:51:53.390Z,8.77
2023-03-10T00:52:53.318Z,8.70
2023-03-10T00:53:53.253Z,8.78
2023-03-10T00:54:53.188Z,8.86
2023-03-10T00:55:53.127Z,8.77
2023-03-10T00:56:53.048Z,8.81
2023-03-10T00:57:52.988Z,8.78
2023-03-10T00:58:52.915Z,8.80
2023-03-10T00:59:52.851Z,8.80
2023-03-10T01:00:52.792Z,8.81
2023-03-10T01:01:52.794Z,8.81
2023-03-10T01:02:52.663Z,8.80
2023-03-10T01:03:52.606Z,8.85
2023-03-10T01:04:52.516Z,8.89
2023-03-10T01:05:52.451Z,8.85
2023-03-10T01:06:52.386Z,8.88
2023-03-10T01:07:52.313Z,8.90
2023-03-10T01:08:52.254Z,8.90
2023-03-10T01:09:52.182Z,8.93
2023-03-10T01:10:52.115Z,8.90
2023-03-10T01:11:52.046Z,8.90
2023-03-10T01:12:51.978Z,8.86
2023-03-10T01:13:51.925Z,8.90
2023-03-10T01:14:51.849Z,8.92
2023-03-10T01:15:51.788Z,8.83
2023-03-10T01:16:51.719Z,8.86
2023-03-10T01:17:51.649Z,8.86
2023-03-10T01:18:51.583Z,8.85
2023-03-10T01:19:51.514Z,8.92
2023-03-10T01:20:51.460Z,8.89
2023-03-10T01:21:51.378Z,8.93
2023-03-10T01:22:51.313Z,8.89
2023-03-10T01:23:51.242Z,8.89
2023-03-10T01:24:51.189Z,8.85
2023-03-10T01:25:51.129Z,8.93
2023-03-10T01:26:51.047Z,8.90
2023-03-10T01:27:50.979Z,8.89
2023-03-10T01:28:50.916Z,8.89
2023-03-10T01:29:50.846Z,8.89
2023-03-10T01:30:50.781Z,8.93
2023-03-10T01:31:50.798Z,8.89
2023-03-10T01:32:50.664Z,8.89
2023-03-10T01:33:50.596Z,8.89
2023-03-10T01:34:50.516Z,8.85
2023-03-10T01:35:50.457Z,8.78
2023-03-10T01:36:50.377Z,8.83
2023-03-10T01:37:50.317Z,8.83
2023-03-10T01:38:50.243Z,8.81
2023-03-10T01:39:50.176Z,8.81
2023-03-10T01:40:50.111Z,8.74
2023-03-10T01:41:50.045Z,8.83
2023-03-10T01:42:49.977Z,8.74
2023-03-10T01:43:49.908Z,8.72
2023-03-10T01:44:49.855Z,8.70
2023-03-10T01:45:49.791Z,8.71
2023-03-10T01:46:49.768Z,8.68
2023-03-10T01:47:49.638Z,8.62
2023-03-10T01:48:49.578Z,8.65
2023-03-10T01:49:49.504Z,8.59
2023-03-10T01:50:49.438Z,8.59
2023-03-10T01:51:49.365Z,8.60
2023-03-10T01:52:49.301Z,8.62
2023-03-10T01:53:49.236Z,8.56
2023-03-10T01:54:49.171Z,8.59
2023-03-10T01:55:49.107Z,8.60
2023-03-10T01:56:49.052Z,8.59
2023-03-10T01:57:48.969Z,8.59
2023-03-10T01:58:48.901Z,8.56
2023-03-10T01:59:48.836Z,8.50
2023-03-10T02:00:48.794Z,8.57
2023-03-10T02:01:48.777Z,8.46
2023-03-10T02:02:48.645Z,8.52
2023-03-10T02:03:48.577Z,8.50
2023-03-10T02:04:48.598Z,8.60
2023-03-10T02:05:48.434Z,8.56
2023-03-10T02:06:48.376Z,8.59
2023-03-10T02:07:48.312Z,8.57
2023-03-10T02:08:48.232Z,8.53
2023-03-10T02:09:48.174Z,8.56
2023-03-10T02:10:48.099Z,8.59
2023-03-10T02:11:48.036Z,8.57
2023-03-10T02:12:47.972Z,8.50
2023-03-10T02:13:47.904Z,8.52
2023-03-10T02:14:47.845Z,8.60
2023-03-10T02:15:47.767Z,8.63
2023-03-10T02:16:47.780Z,8.60
2023-03-10T02:17:47.675Z,8.56
2023-03-10T02:18:47.576Z,8.57
2023-03-10T02:19:47.502Z,8.57
2023-03-10T02:20:47.433Z,8.52
2023-03-10T02:21:47.374Z,8.52
2023-03-10T02:22:47.302Z,8.53
2023-03-10T02:23:58.716Z,8.42
2023-03-10T02:24:47.168Z,8.42
2023-03-10T02:25:47.107Z,8.44
2023-03-10T02:26:47.048Z,8.39
2023-03-10T02:27:46.973Z,8.39
2023-03-10T02:28:46.909Z,8.44
2023-03-10T02:29:58.454Z,8.38
2023-03-10T02:30:46.774Z,8.26
2023-03-10T02:31:46.749Z,8.35
2023-03-10T02:32:46.711Z,8.38
2023-03-10T02:33:46.569Z,8.26
2023-03-10T02:34:46.505Z,8.26
2023-03-10T02:35:46.450Z,8.32
2023-03-10T02:36:46.382Z,8.35
2023-03-10T02:37:46.301Z,8.39
2023-03-10T02:38:46.233Z,8.44
2023-03-10T02:39:46.172Z,8.50
2023-03-10T02:40:46.102Z,8.44
2023-03-10T02:41:46.030Z,8.52
2023-03-10T02:42:45.967Z,8.50
2023-03-10T02:43:45.911Z,8.46
2023-03-10T02:44:45.829Z,8.60
2023-03-10T02:45:45.853Z,8.57
2023-03-10T02:46:45.703Z,8.57
2023-03-10T02:47:45.631Z,8.52
2023-03-10T02:48:45.566Z,8.62
2023-03-10T02:49:45.500Z,8.63
2023-03-10T02:50:45.538Z,8.56
2023-03-10T02:51:45.372Z,8.59
2023-03-10T02:52:45.292Z,8.70
2023-03-10T02:53:45.253Z,8.59
2023-03-10T02:54:45.159Z,8.57
2023-03-10T02:55:45.091Z,8.57
2023-03-10T02:56:45.024Z,8.59
2023-03-10T02:57:44.960Z,8.62
2023-03-10T02:58:44.901Z,8.59
2023-03-10T02:59:44.827Z,8.57
2023-03-10T03:00:44.816Z,8.62
2023-03-10T03:01:44.690Z,8.60
2023-03-10T03:02:44.620Z,8.62
2023-03-10T03:03:44.591Z,8.59
2023-03-10T03:04:44.493Z,8.63
2023-03-10T03:05:44.421Z,8.65
2023-03-10T03:06:44.354Z,8.67
2023-03-10T03:07:44.292Z,8.72
2023-03-10T03:08:44.225Z,8.63
2023-03-10T03:09:44.154Z,8.75
2023-03-10T03:10:44.091Z,8.70
2023-03-10T03:11:44.021Z,8.70
2023-03-10T03:12:43.954Z,8.74
2023-03-10T03:13:43.887Z,8.68
2023-03-10T03:14:43.820Z,8.70
2023-03-10T03:15:43.750Z,8.70
2023-03-10T03:16:43.710Z,8.75
2023-03-10T03:17:43.618Z,8.70
2023-03-10T03:18:43.552Z,8.70
2023-03-10T03:19:43.481Z,8.63
2023-03-10T03:20:43.416Z,8.68
2023-03-10T03:21:43.353Z,8.67
2023-03-10T03:22:43.282Z,8.65
2023-03-10T03:23:43.225Z,8.65
2023-03-10T03:24:43.149Z,8.65
2023-03-10T03:25:43.095Z,8.57
2023-03-10T03:26:43.015Z,8.60
2023-03-10T03:27:42.950Z,8.59
2023-03-10T03:28:42.884Z,8.57
2023-03-10T03:29:42.815Z,8.62
2023-03-10T03:30:42.746Z,8.63
2023-03-10T03:31:42.701Z,8.59
2023-03-10T03:32:42.714Z,8.57
2023-03-10T03:33:42.573Z,8.60
2023-03-10T03:34:42.475Z,8.60
2023-03-10T03:35:42.439Z,8.56
2023-03-10T03:36:42.343Z,8.59
2023-03-10T03:37:42.276Z,8.53
2023-03-10T03:38:42.212Z,8.57
2023-03-10T03:39:42.202Z,8.67
2023-03-10T03:40:42.073Z,8.55
2023-03-10T03:41:42.011Z,8.46
2023-03-10T03:42:41.944Z,8.52
2023-03-10T03:43:41.878Z,8.52
2023-03-10T03:44:41.807Z,8.41
2023-03-10T03:45:41.807Z,8.50
2023-03-10T03:46:41.674Z,8.50
2023-03-10T03:47:41.607Z,8.52
2023-03-10T03:48:41.544Z,8.55
2023-03-10T03:49:41.469Z,8.50
2023-03-10T03:50:41.408Z,8.44
2023-03-10T03:51:41.335Z,8.47
2023-03-10T03:52:41.308Z,8.47
2023-03-10T03:53:41.208Z,8.49
2023-03-10T03:54:41.136Z,8.47
2023-03-10T03:55:41.080Z,8.62
2023-03-10T03:56:41.014Z,8.72
2023-03-10T03:57:40.940Z,8.75
2023-03-10T03:58:40.875Z,8.75
2023-03-10T03:59:40.806Z,8.92
2023-03-10T04:00:40.743Z,8.99
2023-03-10T04:01:40.678Z,9.06
2023-03-10T04:02:40.654Z,9.09
2023-03-10T04:03:40.614Z,9.15
2023-03-10T04:04:40.473Z,9.26
2023-03-10T04:05:40.409Z,9.29
2023-03-10T04:06:40.339Z,9.37
2023-03-10T04:07:40.281Z,9.41
2023-03-10T04:08:40.223Z,9.44
2023-03-10T04:09:40.138Z,9.51
2023-03-10T04:10:40.077Z,9.54
2023-03-10T04:11:40.031Z,9.60
2023-03-10T04:12:39.947Z,9.69
2023-03-10T04:13:39.873Z,9.80
2023-03-10T04:14:39.813Z,9.78
2023-03-10T04:15:39.750Z,9.78
2023-03-10T04:16:39.676Z,9.88
2023-03-10T04:17:39.624Z,9.87
2023-03-10T04:18:39.536Z,9.87
2023-03-10T04:19:39.468Z,9.87
2023-03-10T04:20:39.414Z,9.96
2023-03-10T04:21:39.338Z,10.02
2023-03-10T04:22:39.272Z,9.98
2023-03-10T04:23:39.205Z,10.01
2023-03-10T04:24:39.147Z,9.99
2023-03-10T04:25:39.071Z,10.06
2023-03-10T04:26:39.011Z,10.09
2023-03-10T04:27:38.934Z,10.08
2023-03-10T04:28:38.876Z,10.05
2023-03-10T04:29:38.802Z,10.05
2023-03-10T04:30:38.742Z,10.14
2023-03-10T04:31:38.824Z,10.12
2023-03-10T04:32:38.699Z,10.16
2023-03-10T04:33:38.552Z,10.12
2023-03-10T04:34:38.477Z,10.12
2023-03-10T04:35:38.450Z,10.12
2023-03-10T04:36:38.338Z,10.10
2023-03-10T04:37:38.282Z,10.10
2023-03-10T04:38:38.208Z,10.09
2023-03-10T04:39:38.148Z,10.10
2023-03-10T04:40:38.078Z,10.10
2023-03-10T04:41:38.009Z,10.12
2023-03-10T04:42:37.945Z,10.18
2023-03-10T04:43:37.882Z,10.14
2023-03-10T04:44:37.823Z,10.08
2023-03-10T04:45:37.751Z,10.12
2023-03-10T04:46:37.732Z,10.06
2023-03-10T04:47:37.611Z,10.05
2023-03-10T04:48:37.570Z,10.02
2023-03-10T04:49:37.483Z,9.99
2023-03-10T04:50:37.414Z,10.09
2023-03-10T04:51:37.339Z,10.05
2023-03-10T04:52:37.281Z,10.12
2023-03-10T04:53:37.223Z,10.09
2023-03-10T04:54:37.143Z,10.06
2023-03-10T04:55:37.077Z,10.06
2023-03-10T04:56:37.016Z,10.14
2023-03-10T04:57:36.945Z,9.98
2023-03-10T04:58:36.888Z,10.10
2023-03-10T04:59:36.812Z,10.09
2023-03-10T05:00:36.789Z,10.03
2023-03-10T05:01:36.733Z,10.01
2023-03-10T05:02:36.614Z,10.02
2023-03-10T05:03:36.546Z,10.03
2023-03-10T05:04:36.512Z,10.01
2023-03-10T05:05:37.601Z,10.03
2023-03-10T05:06:36.343Z,9.96
2023-03-10T05:07:36.281Z,9.94
2023-03-10T05:08:36.207Z,9.99
2023-03-10T05:09:36.146Z,9.99
2023-03-10T05:10:36.079Z,9.96
2023-03-10T05:11:36.006Z,9.99
2023-03-10T05:12:35.935Z,9.96
2023-03-10T05:13:35.872Z,9.91
2023-03-10T05:14:35.823Z,9.98
2023-03-10T05:15:35.741Z,10.03
2023-03-10T05:16:35.704Z,9.99
2023-03-10T05:17:35.611Z,9.96
2023-03-10T05:18:35.541Z,10.02
2023-03-10T05:19:35.490Z,10.09
2023-03-10T05:20:35.402Z,9.98
2023-03-10T05:21:35.348Z,10.02
2023-03-10T05:22:35.275Z,10.05
2023-03-10T05:23:35.207Z,10.10
2023-03-10T05:24:35.141Z,10.06
2023-03-10T05:25:35.074Z,10.01
2023-03-10T05:26:35.125Z,10.02
2023-03-10T05:27:34.942Z,10.08
2023-03-10T05:28:34.877Z,10.09
2023-03-10T05:29:34.808Z,10.14
2023-03-10T05:30:34.832Z,10.18
2023-03-10T05:31:34.715Z,10.05
2023-03-10T05:32:34.680Z,10.01
2023-03-10T05:33:34.537Z,10.09
2023-03-10T05:34:34.474Z,10.01
2023-03-10T05:35:34.417Z,9.98
2023-03-10T05:36:34.344Z,9.99
2023-03-10T05:37:34.271Z,10.12
2023-03-10T05:38:34.204Z,10.10
2023-03-10T05:39:34.141Z,10.09
2023-03-10T05:40:34.069Z,10.08
2023-03-10T05:41:34.011Z,9.99
2023-03-10T05:42:33.945Z,10.03
2023-03-10T05:43:33.881Z,10.03
2023-03-10T05:44:33.808Z,10.06
2023-03-10T05:45:33.747Z,10.05
2023-03-10T05:46:33.732Z,10.08
2023-03-10T05:47:33.610Z,9.99
2023-03-10T05:48:33.544Z,9.99
2023-03-10T05:49:33.477Z,9.99
2023-03-10T05:50:33.411Z,9.98
2023-03-10T05:51:33.346Z,9.96
2023-03-10T05:52:33.281Z,9.98
2023-03-10T05:53:33.231Z,9.98
2023-03-10T05:54:33.154Z,9.99
2023-03-10T05:55:33.078Z,10.03
2023-03-10T05:56:33.013Z,10.14
2023-03-10T05:57:32.948Z,10.05
2023-03-10T05:58:32.876Z,10.02
2023-03-10T05:59:32.813Z,10.17
2023-03-10T06:00:32.742Z,10.10
2023-03-10T06:01:32.677Z,10.08
2023-03-10T06:02:32.621Z,10.12
2023-03-10T06:03:32.672Z,10.02
2023-03-10T06:04:32.562Z,10.08
2023-03-10T06:05:32.431Z,10.12
2023-03-10T06:06:32.345Z,10.06
2023-03-10T06:07:32.279Z,10.08
2023-03-10T06:08:32.214Z,10.12
2023-03-10T06:09:32.143Z,10.14
2023-03-10T06:10:32.072Z,10.09
2023-03-10T06:11:32.016Z,10.24
2023-03-10T06:12:31.946Z,10.24
2023-03-10T06:13:31.885Z,10.17
2023-03-10T06:14:31.819Z,10.20
2023-03-10T06:15:31.754Z,10.23
2023-03-10T06:16:31.718Z,10.18
2023-03-10T06:17:31.610Z,10.23
2023-03-10T06:18:31.552Z,10.28
2023-03-10T06:19:31.502Z,10.23
2023-03-10T06:20:31.415Z,10.24
2023-03-10T06:21:31.351Z,10.34
2023-03-10T06:22:31.556Z,10.46
2023-03-10T06:23:31.241Z,10.43
2023-03-10T06:24:31.145Z,10.43
2023-03-10T06:25:31.087Z,10.45
2023-03-10T06:26:31.015Z,10.39
2023-03-10T06:27:30.950Z,10.36
2023-03-10T06:28:30.880Z,10.36
2023-03-10T06:29:30.828Z,10.45
2023-03-10T06:30:30.750Z,10.46
2023-03-10T06:31:30.700Z,10.42
2023-03-10T06:32:30.667Z,10.46
2023-03-10T06:33:30.555Z,10.42
2023-03-10T06:34:30.490Z,10.41
2023-03-10T06:35:30.424Z,10.43
2023-03-10T06:36:30.353Z,10.45
2023-03-10T06:37:30.292Z,10.43
2023-03-10T06:38:30.229Z,10.42
2023-03-10T06:39:30.209Z,10.45
2023-03-10T06:40:30.089Z,10.43
2023-03-10T06:41:30.063Z,10.52
2023-03-10T06:42:29.974Z,10.48
2023-03-10T06:43:29.891Z,10.39
2023-03-10T06:44:29.828Z,10.42
2023-03-10T06:45:29.875Z,10.41
2023-03-10T06:46:29.698Z,10.39
2023-03-10T06:47:29.628Z,10.41
2023-03-10T06:48:29.568Z,10.39
2023-03-10T06:49:29.508Z,10.48
2023-03-10T06:50:31.548Z,10.45
2023-03-10T06:51:29.371Z,10.41
2023-03-10T06:52:29.309Z,10.39
2023-03-10T06:53:29.239Z,10.54
2023-03-10T09:45:23.340Z,11.19
2023-03-10T09:46:23.256Z,11.16
2023-03-10T09:49:58.992Z,11.18
2023-03-10T09:50:58.862Z,11.18
2023-03-10T11:44:23.292Z,12.61
2023-03-10T11:45:23.204Z,12.69
2023-03-10T12:13:16.277Z,12.66
2023-03-10T12:14:16.141Z,12.69
2023-03-10T12:17:41.289Z,12.61
2023-03-10T12:18:41.249Z,12.71
2023-03-10T12:20:45.595Z,12.59
2023-03-10T12:21:45.463Z,12.59
2023-03-10T12:23:49.809Z,12.71
2023-03-10T12:24:49.728Z,12.66
2023-03-10T12:25:49.659Z,12.65
2023-03-10T12:26:49.590Z,12.61
2023-03-10T12:27:49.532Z,12.55
2023-03-10T12:28:49.473Z,12.55
2023-03-10T12:29:49.396Z,12.54
2023-03-10T12:30:49.334Z,12.54
2023-03-10T12:31:49.338Z,12.66
2023-03-10T12:32:49.250Z,12.63
2023-03-10T12:33:49.165Z,12.80
2023-03-10T12:34:49.073Z,12.77
2023-03-10T12:35:49.039Z,12.68
2023-03-10T12:36:48.943Z,12.79
2023-03-10T12:37:48.878Z,12.88
2023-03-10T12:38:48.832Z,12.98
2023-03-10T12:39:48.751Z,12.95
2023-03-10T12:40:48.684Z,13.02
2023-03-10T12:41:48.641Z,13.08
2023-03-10T12:42:48.554Z,13.13
2023-03-10T12:43:48.520Z,13.14
2023-03-10T12:44:48.429Z,13.08
2023-03-10T12:45:48.365Z,13.13
2023-03-10T12:46:48.388Z,13.16
2023-03-10T12:47:48.235Z,13.02
2023-03-10T12:48:48.181Z,13.02
2023-03-10T12:49:48.097Z,13.09
2023-03-10T12:50:48.056Z,13.04
2023-03-10T12:51:47.968Z,13.04
2023-03-10T12:52:47.984Z,13.09
2023-03-10T12:53:47.845Z,12.98
2023-03-10T12:54:47.809Z,13.11
2023-03-10T12:55:47.716Z,13.05
2023-03-10T12:56:47.650Z,13.02
2023-03-10T12:57:47.581Z,13.05
2023-03-10T12:58:47.519Z,13.01
2023-03-10T12:59:47.457Z,12.95
2023-03-10T13:00:47.425Z,12.83
2023-03-10T13:01:55.439Z,12.77
2023-03-10T13:02:47.262Z,12.95
2023-03-10T13:03:47.322Z,12.81
2023-03-10T13:04:47.138Z,12.86
2023-03-10T13:05:47.123Z,12.81
2023-03-10T13:06:47.007Z,12.88
2023-03-10T13:07:46.942Z,12.77
2023-03-10T13:08:46.875Z,12.73
2023-03-10T13:09:46.822Z,12.66
2023-03-10T13:10:46.763Z,12.54
2023-03-10T13:11:46.686Z,12.50
2023-03-10T13:12:46.616Z,12.53
2023-03-10T13:13:46.560Z,12.54
2023-03-10T13:14:46.500Z,12.55
2023-03-10T13:15:46.434Z,12.54
2023-03-10T13:16:46.386Z,12.68
2023-03-10T13:17:46.299Z,12.73
2023-03-10T13:18:46.229Z,12.71
2023-03-10T13:19:46.168Z,12.79
2023-03-10T13:20:46.106Z,12.76
2023-03-10T13:21:46.040Z,12.68
2023-03-10T13:22:45.979Z,12.73
2023-03-10T13:23:45.914Z,12.81
2023-03-10T13:24:45.841Z,12.81
2023-03-10T13:25:45.802Z,12.58
2023-03-10T13:26:45.742Z,12.62
2023-03-10T13:27:45.657Z,12.65
2023-03-10T13:28:45.587Z,12.53
2023-03-10T13:29:45.530Z,12.53
2023-03-10T13:30:45.480Z,12.55
2023-03-10T13:31:45.487Z,12.59
2023-03-10T13:32:45.404Z,12.63
2023-03-10T13:33:52.724Z,12.61
2023-03-10T13:34:45.212Z,12.66
2023-03-10T13:35:45.206Z,12.59
2023-03-10T13:36:45.075Z,12.69
2023-03-10T13:37:45.006Z,12.71
2023-03-10T13:38:44.944Z,12.59
2023-03-10T13:39:44.879Z,12.54
2023-03-10T13:40:44.824Z,12.62
2023-03-10T13:41:44.753Z,12.65
2023-03-10T13:42:44.827Z,12.55
2023-03-10T13:43:44.620Z,12.55
2023-03-10T13:44:44.563Z,12.50
2023-03-10T13:45:44.514Z,12.54
2023-03-10T13:46:44.424Z,12.54
2023-03-10T13:47:44.365Z,12.58
2023-03-10T13:48:44.314Z,12.55
2023-03-10T13:49:44.235Z,12.63
2023-03-10T13:50:44.168Z,12.69
2023-03-10T13:51:44.112Z,12.72
2023-03-10T13:52:44.042Z,12.65
2023-03-10T13:53:43.975Z,12.68
2023-03-10T13:54:43.906Z,12.71
2023-03-10T13:55:43.869Z,12.77
2023-03-10T13:56:43.778Z,12.61
2023-03-10T13:57:43.719Z,12.61
2023-03-10T13:58:43.657Z,12.51
2023-03-10T13:59:43.593Z,12.48
2023-03-10T14:00:43.527Z,12.35
2023-03-10T14:01:43.455Z,12.32
2023-03-10T14:02:43.402Z,12.22
2023-03-10T14:03:43.388Z,12.22
2023-03-10T14:04:43.265Z,12.14
2023-03-10T14:05:43.198Z,12.25
2023-03-10T14:06:43.133Z,12.22
2023-03-10T14:07:43.066Z,11.99
2023-03-10T14:08:43.012Z,12.03
2023-03-10T14:09:42.937Z,12.04
2023-03-10T14:10:42.875Z,11.89
2023-03-10T14:11:42.812Z,11.91
2023-03-10T14:12:42.741Z,11.95
2023-03-10T14:13:42.683Z,11.91
2023-03-10T14:14:42.608Z,11.89
2023-03-10T14:15:42.548Z,11.89
2023-03-10T14:16:42.513Z,11.91
2023-03-10T14:17:42.419Z,11.91
2023-03-10T14:18:42.355Z,11.82
2023-03-10T14:19:42.284Z,11.88
2023-03-10T14:20:42.218Z,11.77
2023-03-10T14:21:58.514Z,11.80
2023-03-10T14:22:42.090Z,11.87
2023-03-10T14:23:42.027Z,11.89
2023-03-10T14:24:41.961Z,11.85
2023-03-10T14:25:41.894Z,11.84
2023-03-10T14:26:41.840Z,11.91
2023-03-10T14:27:42.312Z,11.74
2023-03-10T14:28:41.701Z,11.61
2023-03-10T14:29:41.634Z,11.45
2023-03-10T14:30:41.607Z,11.48
2023-03-10T14:31:41.501Z,11.52
2023-03-10T14:32:41.506Z,11.43
2023-03-10T14:33:42.313Z,11.25
2023-03-10T14:34:41.309Z,11.16
2023-03-10T14:35:41.258Z,11.04
2023-03-10T14:36:41.178Z,11.01
2023-03-10T14:37:41.122Z,11.01
2023-03-10T14:38:41.069Z,11.01
2023-03-10T14:39:41.000Z,11.05
2023-03-10T14:40:40.916Z,10.95
2023-03-10T14:41:40.846Z,11.04
2023-03-10T14:42:40.791Z,11.05
2023-03-10T14:43:40.727Z,11.00
2023-03-10T14:44:40.655Z,11.03
2023-03-10T14:45:41.449Z,11.03
2023-03-10T14:46:40.777Z,11.03
2023-03-10T14:47:40.671Z,11.01
2023-03-10T14:48:40.390Z,11.05
2023-03-10T14:49:40.326Z,11.03
2023-03-10T14:50:40.274Z,11.08
2023-03-10T14:51:40.194Z,11.05
2023-03-10T14:52:40.132Z,11.04
2023-03-10T14:53:40.078Z,10.94
2023-03-10T14:54:40.004Z,10.94
2023-03-10T14:55:39.940Z,10.90
2023-03-10T14:56:39.867Z,10.72
2023-03-10T14:57:39.799Z,10.73
2023-03-10T14:58:39.733Z,10.65
2023-03-10T14:59:39.670Z,10.61
2023-03-10T15:00:39.618Z,10.68
2023-03-10T15:01:39.613Z,10.57
2023-03-10T15:02:39.474Z,10.45
2023-03-10T15:03:39.410Z,10.46
2023-03-10T15:04:39.485Z,10.45
2023-03-10T15:05:48.368Z,10.61
2023-03-10T15:06:39.214Z,10.61
2023-03-10T15:07:39.149Z,10.67
2023-03-10T15:08:39.082Z,10.58
2023-03-10T15:09:39.012Z,10.62
2023-03-10T15:10:38.962Z,10.61
2023-03-10T15:11:38.883Z,10.58
2023-03-10T15:12:38.822Z,10.62
2023-03-10T15:13:38.756Z,10.57
2023-03-10T15:14:38.688Z,10.60
2023-03-10T15:15:38.705Z,10.58
2023-03-10T15:16:38.555Z,10.58
2023-03-10T15:17:38.491Z,10.62
2023-03-10T15:18:38.425Z,10.55
2023-03-10T15:19:38.394Z,10.45
2023-03-10T15:20:38.299Z,10.58
2023-03-10T15:21:38.229Z,10.48
2023-03-10T15:22:38.180Z,10.57
2023-03-10T15:23:38.089Z,10.42
2023-03-10T15:24:38.024Z,10.43
2023-03-10T15:25:37.982Z,10.41
2023-03-10T15:26:37.897Z,10.42
2023-03-10T15:27:37.828Z,10.41
2023-03-10T15:28:37.762Z,10.39
2023-03-10T15:29:37.695Z,10.45
2023-03-10T15:30:37.634Z,10.41
2023-03-10T15:31:37.611Z,10.45
2023-03-10T15:32:37.564Z,10.27
2023-03-10T15:33:37.442Z,10.26
2023-03-10T15:34:37.367Z,10.21
2023-03-10T15:35:37.341Z,10.21
2023-03-10T15:36:37.239Z,10.27
2023-03-10T15:37:37.172Z,10.17
2023-03-10T15:38:37.106Z,10.17
2023-03-10T15:39:37.568Z,10.08
2023-03-10T15:40:36.968Z,10.06
2023-03-10T15:41:36.927Z,10.16
2023-03-10T15:42:36.847Z,10.01
2023-03-10T15:43:36.773Z,10.08
2023-03-10T15:44:36.704Z,10.01
2023-03-10T15:45:36.638Z,10.02
2023-03-10T15:46:36.606Z,9.99
2023-03-10T15:47:36.523Z,10.05
2023-03-10T15:48:36.441Z,9.98
2023-03-10T15:49:36.381Z,9.98
2023-03-10T15:50:36.308Z,10.03
2023-03-10T15:51:36.242Z,10.03
2023-03-10T15:52:36.174Z,10.03
2023-03-10T15:53:36.107Z,10.09
2023-03-10T15:54:36.048Z,10.03
2023-03-10T15:55:35.975Z,10.06
2023-03-10T15:56:35.914Z,10.10
2023-03-10T15:57:35.843Z,10.01
2023-03-10T15:58:35.781Z,10.02
2023-03-10T15:59:35.712Z,10.05
2023-03-10T16:00:35.648Z,10.05
2023-03-10T16:01:35.627Z,10.06
2023-03-10T16:02:35.521Z,10.09
2023-03-10T16:03:35.452Z,10.06
2023-03-10T16:04:35.415Z,10.03
2023-03-10T16:05:35.315Z,10.05
2023-03-10T16:06:35.245Z,10.10
2023-03-10T16:07:35.180Z,9.98
2023-03-10T16:08:35.114Z,10.09
2023-03-10T16:09:35.055Z,10.18
2023-03-10T16:10:34.990Z,10.14
2023-03-10T16:11:34.917Z,10.05
2023-03-10T16:12:34.849Z,10.26
2023-03-10T16:13:34.787Z,10.21
2023-03-10T16:14:34.716Z,10.21
2023-03-10T16:15:34.649Z,10.20
2023-03-10T16:16:34.602Z,10.20
2023-03-10T16:17:34.518Z,10.16
2023-03-10T16:18:34.457Z,10.09
2023-03-10T16:19:34.407Z,10.09
2023-03-10T16:20:34.311Z,10.26
2023-03-10T16:21:34.263Z,10.24
2023-03-10T16:22:34.194Z,10.21
2023-03-10T16:23:34.126Z,10.20
2023-03-10T16:24:34.042Z,10.23
2023-03-10T16:25:33.993Z,10.18
2023-03-10T16:26:33.928Z,10.18
2023-03-10T16:27:33.851Z,10.27
2023-03-10T16:28:33.795Z,10.18
2023-03-10T16:29:33.725Z,10.21
2023-03-10T16:30:33.743Z,10.26
2023-03-10T16:31:33.617Z,10.17
2023-03-10T16:32:33.591Z,10.21
2023-03-10T16:33:33.453Z,10.17
2023-03-10T16:34:33.385Z,10.24
2023-03-10T16:35:33.348Z,10.23
2023-03-10T16:36:33.260Z,10.17
2023-03-10T16:37:33.183Z,10.09
2023-03-10T16:38:33.113Z,10.18
2023-03-10T16:39:33.054Z,10.09
2023-03-10T16:40:32.978Z,10.27
2023-03-10T16:41:32.917Z,10.26
2023-03-10T16:42:32.853Z,10.16
2023-03-10T16:43:32.797Z,10.26
2023-03-10T16:44:32.719Z,10.16
2023-03-10T16:45:32.717Z,10.10
2023-03-10T16:46:32.583Z,10.14
2023-03-10T16:47:32.517Z,10.05
2023-03-10T16:48:32.448Z,10.14
2023-03-10T16:49:32.453Z,10.10
2023-03-10T16:50:32.323Z,10.09
2023-03-10T16:51:32.251Z,10.03
2023-03-10T16:52:32.181Z,10.10
2023-03-10T16:53:32.116Z,10.12
2023-03-10T16:54:32.049Z,10.02
2023-03-10T16:55:31.985Z,10.08
2023-03-10T16:56:31.920Z,9.99
2023-03-10T16:57:31.855Z,10.02
2023-03-10T16:58:31.779Z,10.06
2023-03-10T16:59:31.722Z,9.99
2023-03-10T17:00:31.648Z,9.84
2023-03-10T17:01:31.644Z,9.54
2023-03-10T17:02:31.527Z,9.57
2023-03-10T17:03:31.473Z,9.50
2023-03-10T17:04:31.388Z,9.42
2023-03-10T17:05:31.320Z,9.32
2023-03-10T17:06:31.258Z,9.33
2023-03-10T17:07:31.186Z,9.29
2023-03-10T17:08:31.118Z,9.29
2023-03-10T17:09:31.050Z,9.24
2023-03-10T17:10:30.984Z,9.16
2023-03-10T17:11:30.915Z,9.15
2023-03-10T17:12:30.851Z,9.19
2023-03-10T17:13:30.778Z,9.06
2023-03-10T17:14:30.717Z,9.01
2023-03-10T17:15:30.670Z,9.06
2023-03-10T17:16:30.659Z,8.90
2023-03-10T17:17:30.520Z,8.95
2023-03-10T17:18:30.448Z,8.90
2023-03-10T17:19:30.492Z,8.90
2023-03-10T17:20:30.323Z,8.85
2023-03-10T17:21:30.253Z,8.88
2023-03-10T17:22:30.198Z,8.93
2023-03-10T17:23:30.132Z,8.85
2023-03-10T17:24:30.057Z,8.81
2023-03-10T17:25:29.995Z,8.86
2023-03-10T17:26:29.920Z,8.86
2023-03-10T17:27:29.857Z,8.90
2023-03-10T17:28:29.789Z,8.80
2023-03-10T17:29:29.715Z,8.71
2023-03-10T17:30:29.675Z,8.77
2023-03-10T17:31:29.637Z,8.72
2023-03-10T17:32:29.559Z,8.70
2023-03-10T17:33:29.454Z,8.77
2023-03-10T17:34:29.406Z,8.74
2023-03-10T17:35:29.325Z,8.65
2023-03-10T17:36:29.245Z,8.63
2023-03-10T17:37:29.179Z,8.57
2023-03-10T17:38:29.112Z,8.53
2023-03-10T17:39:29.055Z,8.59
2023-03-10T17:40:28.987Z,8.50
2023-03-10T17:41:28.927Z,8.53
2023-03-10T17:42:28.836Z,8.37
2023-03-10T17:43:33.727Z,8.39
2023-03-10T17:44:28.716Z,8.46
2023-03-10T17:45:28.656Z,8.44
2023-03-10T17:46:28.621Z,8.49
2023-03-10T17:47:28.505Z,8.52
2023-03-10T17:48:28.434Z,8.53
2023-03-10T17:49:28.381Z,8.47
2023-03-10T17:50:28.321Z,8.52
2023-03-10T17:51:28.239Z,8.42
2023-03-10T17:52:28.165Z,8.44
2023-03-10T17:53:28.101Z,8.42
2023-03-10T17:54:28.039Z,8.39
2023-03-10T17:55:27.973Z,8.52
2023-03-10T17:56:27.908Z,8.52
2023-03-10T17:57:27.841Z,8.56
2023-03-10T17:58:27.762Z,8.56
2023-03-10T17:59:27.701Z,8.52
2023-03-10T18:00:27.631Z,8.38
2023-03-10T18:01:27.611Z,8.37
2023-03-10T18:02:27.614Z,8.35
2023-03-10T18:03:27.454Z,8.41
2023-03-10T18:04:27.365Z,8.34
2023-03-10T18:05:27.314Z,8.31
2023-03-10T18:06:27.229Z,8.31
2023-03-10T18:07:27.164Z,8.31
2023-03-10T18:08:27.093Z,8.31
2023-03-10T18:09:27.025Z,8.23
2023-03-10T18:10:26.959Z,8.14
2023-03-10T18:11:26.925Z,8.13
2023-03-10T18:12:26.829Z,8.06
2023-03-10T18:13:26.764Z,8.16
2023-03-10T18:14:26.692Z,8.13
2023-03-10T18:15:35.641Z,8.13
2023-03-10T18:17:21.383Z,8.12
2023-03-10T18:18:21.140Z,8.13
2023-03-10T18:20:26.434Z,8.13
2023-03-10T18:21:26.338Z,8.14
2023-03-10T18:23:22.496Z,8.13
2023-03-10T18:24:22.286Z,8.10